Time;durP1;ratioP1;P1;durP2;ratioP2;P2;SDS_P1;SDS_P2;PMS_P1;PMS_P2;Temp;Humidity;BMP_temperature;BMP_pressure;BME280_temperature;BME280_humidity;BME280_pressure;Samples;Min_cycle;Max_cycle;Signal;HPM_P1;HPM_P2
2022/12/22 03:25:51;;;;;;;;;;;20.10;66.40;;;;;;1595968;73;1634;-68
2022/12/22 03:27:53;;;;;;;;;;;20.10;66.40;;;;;;1605420;72;1601;-67
2022/12/22 03:29:55;;;;;;;;;;;20.10;66.40;;;;;;1593332;73;642;-67
2022/12/22 03:31:57;;;;;;;;;;;20.10;66.40;;;;;;1588158;73;1930;-66
2022/12/22 03:33:58;;;;;;;;;;;20.10;66.40;;;;;;1597914;73;1141;-66
2022/12/22 03:36:00;;;;;;;;;;;20.10;66.40;;;;;;1591704;72;623;-66
2022/12/22 03:38:02;;;;;;;;;;;20.10;66.40;;;;;;1595515;74;713;-66
2022/12/22 03:40:04;;;;;;;;;;;20.10;66.40;;;;;;1599416;74;667;-66
2022/12/22 03:46:46;;;;;;;;;;;20.10;66.30;;;;;;1599623;72;1638;-68
2022/12/22 03:49:08;;;;;;;;;;;20.10;66.30;;;;;;1580892;73;639;-65
2022/12/22 03:50:51;;;;;;;;;;;20.10;66.40;;;;;;1596322;74;1922;-66
2022/12/22 03:52:53;;;;;;;;;;;20.10;67.00;;;;;;1597079;73;1188;-65
2022/12/22 03:54:55;;;;;;;;;;;20.20;66.90;;;;;;1604195;72;1439;-66
2022/12/22 03:56:57;;;;;;;;;;;20.10;66.70;;;;;;1579756;72;222790;-63
2022/12/22 03:58:59;;;;;;;;;;;20.10;66.60;;;;;;1557974;74;1211;-63
2022/12/22 04:01:05;;;;;;;;;;;20.10;66.50;;;;;;1567297;74;810;-63
2022/12/22 04:03:07;;;;;;;;;;;20.10;66.40;;;;;;1571086;74;781;-64
2022/12/22 04:05:09;;;;;;;;;;;20.10;66.50;;;;;;1574709;74;695;-64
2022/12/22 04:07:11;;;;;;;;;;;20.10;66.50;;;;;;1568608;74;793;-66
2022/12/22 04:09:12;;;;;;;;;;;20.10;66.50;;;;;;1573025;74;1548;-63
2022/12/22 04:13:35;;;;;;;;;;;20.10;66.50;;;;;;1571545;74;1674;-63
2022/12/22 04:15:36;;;;;;;;;;;20.10;66.40;;;;;;1577364;74;718;-66
2022/12/22 04:17:38;;;;;;;;;;;20.10;66.40;;;;;;1577684;74;689;-63
2022/12/22 04:19:40;;;;;;;;;;;20.10;66.40;;;;;;1568549;74;1133;-63
2022/12/22 04:21:42;;;;;;;;;;;20.10;66.40;;;;;;1570937;74;632;-63
2022/12/22 04:23:44;;;;;;;;;;;20.10;66.30;;;;;;1575017;74;1562;-64
2022/12/22 04:25:46;;;;;;;;;;;20.10;66.30;;;;;;1576925;74;708;-64
2022/12/22 04:27:48;;;;;;;;;;;20.10;66.40;;;;;;1573369;74;746;-63
2022/12/22 04:29:50;;;;;;;;;;;20.10;66.30;;;;;;1558262;74;1091;-63
2022/12/22 04:31:52;;;;;;;;;;;20.10;66.30;;;;;;1571016;74;1923;-63
2022/12/22 04:33:53;;;;;;;;;;;20.10;66.30;;;;;;1577415;74;703;-64
2022/12/22 04:35:55;;;;;;;;;;;20.10;66.20;;;;;;1571809;74;723;-63
2022/12/22 04:37:57;;;;;;;;;;;20.10;66.30;;;;;;1575013;74;1350;-65
2022/12/22 04:39:59;;;;;;;;;;;20.20;66.20;;;;;;1571939;74;1124;-63
2022/12/22 04:42:01;;;;;;;;;;;20.10;66.20;;;;;;1564901;74;723;-64
2022/12/22 04:44:03;;;;;;;;;;;20.10;66.20;;;;;;1569007;74;734;-65
2022/12/22 04:46:05;;;;;;;;;;;20.10;66.20;;;;;;1575184;74;709;-63
2022/12/22 04:48:07;;;;;;;;;;;20.10;66.20;;;;;;1576105;74;667;-65
2022/12/22 04:50:09;;;;;;;;;;;20.10;66.20;;;;;;1564019;74;690;-63
2022/12/22 04:52:11;;;;;;;;;;;20.10;66.20;;;;;;1575775;74;1945;-64
2022/12/22 04:54:13;;;;;;;;;;;20.10;66.20;;;;;;1573942;74;717;-63
2022/12/22 04:56:14;;;;;;;;;;;20.10;66.40;;;;;;1566871;74;690;-64
2022/12/22 04:58:16;;;;;;;;;;;20.10;66.30;;;;;;1564444;74;1107;-64
2022/12/22 05:00:19;;;;;;;;;;;20.10;66.30;;;;;;1568928;74;677;-62
2022/12/22 05:02:21;;;;;;;;;;;20.10;66.20;;;;;;1574668;74;698;-63
2022/12/22 05:04:22;;;;;;;;;;;20.10;66.20;;;;;;1564500;74;689;-65
2022/12/22 05:06:24;;;;;;;;;;;20.10;66.10;;;;;;1575236;74;1558;-63
2022/12/22 05:08:26;;;;;;;;;;;20.10;66.20;;;;;;1580732;74;1112;-63
2022/12/22 05:10:28;;;;;;;;;;;20.10;66.10;;;;;;1576180;74;658;-64
2022/12/22 05:14:50;;;;;;;;;;;20.10;66.10;;;;;;1576506;74;1660;-63
2022/12/22 05:16:52;;;;;;;;;;;20.10;66.10;;;;;;1570128;74;777;-63
2022/12/22 05:18:54;;;;;;;;;;;20.10;66.10;;;;;;1571925;74;1385;-64
2022/12/22 05:20:56;;;;;;;;;;;20.10;66.10;;;;;;1582449;74;811;-64
2022/12/22 05:22:58;;;;;;;;;;;20.10;66.10;;;;;;1576494;74;657;-63
2022/12/22 05:25:00;;;;;;;;;;;20.10;66.10;;;;;;1569488;74;666;-63
2022/12/22 05:27:01;;;;;;;;;;;20.10;66.10;;;;;;1577507;74;756;-63
2022/12/22 05:29:03;;;;;;;;;;;20.10;66.10;;;;;;1563165;74;1101;-63
2022/12/22 05:31:06;;;;;;;;;;;20.10;66.10;;;;;;1576133;74;1941;-65
2022/12/22 05:33:08;;;;;;;;;;;20.10;66.10;;;;;;1574382;74;1311;-64
2022/12/22 05:35:10;;;;;;;;;;;20.10;66.10;;;;;;1575843;74;734;-64
2022/12/22 05:37:11;;;;;;;;;;;20.10;66.10;;;;;;1573545;74;736;-66
2022/12/22 05:39:13;;;;;;;;;;;20.10;66.10;;;;;;1577501;74;1148;-63
2022/12/22 05:41:15;;;;;;;;;;;20.10;66.10;;;;;;1577398;74;684;-63
2022/12/22 05:43:17;;;;;;;;;;;20.10;66.30;;;;;;1563405;74;733;-63
2022/12/22 05:45:19;;;;;;;;;;;20.10;66.30;;;;;;1568780;74;658;-62
2022/12/22 05:47:21;;;;;;;;;;;20.10;66.30;;;;;;1568839;74;1578;-63
2022/12/22 05:49:23;;;;;;;;;;;20.10;67.70;;;;;;1566170;74;1135;-62
2022/12/22 05:51:25;;;;;;;;;;;20.10;67.30;;;;;;1561899;74;1926;-63
2022/12/22 05:53:27;;;;;;;;;;;20.10;67.70;;;;;;1577253;74;730;-62
2022/12/22 05:55:29;;;;;;;;;;;20.20;67.70;;;;;;1574239;74;668;-62
2022/12/22 05:57:31;;;;;;;;;;;20.10;67.70;;;;;;1576427;74;798;-63
2022/12/22 05:59:32;;;;;;;;;;;20.20;67.50;;;;;;1564316;74;1229;-65
2022/12/22 06:01:34;;;;;;;;;;;20.10;67.60;;;;;;1562125;74;1499;-64
2022/12/22 06:03:36;;;;;;;;;;;20.20;67.70;;;;;;1566746;74;684;-62
2022/12/22 06:05:38;;;;;;;;;;;20.20;67.60;;;;;;1576115;74;804;-62
2022/12/22 06:07:40;;;;;;;;;;;20.20;67.70;;;;;;1563037;74;623;-64
2022/12/22 06:09:42;;;;;;;;;;;20.20;67.80;;;;;;1573261;74;1135;-65
2022/12/22 06:11:44;;;;;;;;;;;20.20;68.50;;;;;;1559173;74;1939;-65
2022/12/22 06:13:46;;;;;;;;;;;20.20;68.10;;;;;;1569118;74;678;-61
2022/12/22 06:15:48;;;;;;;;;;;20.20;68.80;;;;;;1559430;74;1313;-63
2022/12/22 06:17:50;;;;;;;;;;;20.20;68.60;;;;;;1569337;74;735;-61
2022/12/22 06:19:52;;;;;;;;;;;20.20;68.30;;;;;;1586288;74;1112;-60
2022/12/22 06:21:53;;;;;;;;;;;20.20;67.90;;;;;;1571795;74;679;-60
2022/12/22 06:23:55;;;;;;;;;;;20.20;67.80;;;;;;1570895;74;748;-60
2022/12/22 06:25:58;;;;;;;;;;;20.30;68.10;;;;;;1567122;74;708;-60
2022/12/22 06:28:00;;;;;;;;;;;20.20;67.70;;;;;;1566620;74;718;-60
2022/12/22 06:30:02;;;;;;;;;;;20.20;67.40;;;;;;1559778;74;1588;-61
2022/12/22 06:32:04;;;;;;;;;;;20.30;67.40;;;;;;1551303;74;1936;-61
2022/12/22 06:34:06;;;;;;;;;;;20.20;67.30;;;;;;1576170;74;688;-61
2022/12/22 06:36:08;;;;;;;;;;;20.20;67.30;;;;;;1577224;74;699;-61
2022/12/22 06:38:10;;;;;;;;;;;20.30;67.30;;;;;;1576631;74;1119;-61
2022/12/22 06:40:12;;;;;;;;;;;20.20;67.20;;;;;;1577581;74;689;-60
2022/12/22 06:44:33;;;;;;;;;;;20.30;68.30;;;;;;1570206;74;1675;-60
2022/12/22 06:46:35;;;;;;;;;;;20.30;68.20;;;;;;1567121;74;749;-60
2022/12/22 06:48:37;;;;;;;;;;;20.40;68.10;;;;;;1562994;74;1172;-61
2022/12/22 06:50:39;;;;;;;;;;;20.30;67.70;;;;;;1557547;74;739;-62
2022/12/22 06:52:41;;;;;;;;;;;20.30;67.50;;;;;;1565094;74;1930;-60
2022/12/22 06:54:43;;;;;;;;;;;20.20;67.30;;;;;;1573605;74;659;-62
2022/12/22 06:56:45;;;;;;;;;;;20.20;67.10;;;;;;1564450;74;723;-60
2022/12/22 06:58:47;;;;;;;;;;;20.30;66.70;;;;;;1569241;74;1599;-59
2022/12/22 07:00:50;;;;;;;;;;;20.30;66.40;;;;;;1564592;74;643;-60
2022/12/22 07:02:51;;;;;;;;;;;20.20;66.20;;;;;;1566245;74;737;-60
2022/12/22 07:04:53;;;;;;;;;;;20.30;66.20;;;;;;1561518;74;657;-61
2022/12/22 07:06:55;;;;;;;;;;;20.30;66.10;;;;;;1560072;74;735;-60
2022/12/22 07:08:57;;;;;;;;;;;20.30;66.10;;;;;;1560911;74;1243;-61
2022/12/22 07:10:59;;;;;;;;;;;20.20;66.00;;;;;;1564129;74;703;-60
2022/12/22 07:13:17;;;;;;;;;;;20.20;66.00;;;;;;1569087;74;1931;-60
2022/12/22 07:15:05;;;;;;;;;;;20.20;66.00;;;;;;1559822;74;1532;-60
2022/12/22 07:17:07;;;;;;;;;;;20.20;66.00;;;;;;1568703;74;731;-60
2022/12/22 07:19:09;;;;;;;;;;;20.20;66.00;;;;;;1564688;74;1128;-61
2022/12/22 07:21:12;;;;;;;;;;;20.20;66.00;;;;;;1571273;74;756;-60
2022/12/22 07:23:14;;;;;;;;;;;20.20;66.10;;;;;;1569264;74;668;-60
2022/12/22 07:25:16;;;;;;;;;;;20.20;66.10;;;;;;1565262;74;726;-61
2022/12/22 07:27:18;;;;;;;;;;;20.10;66.10;;;;;;1560238;74;1510;-62
2022/12/22 07:29:20;;;;;;;;;;;20.20;66.00;;;;;;1568556;74;1143;-60
2022/12/22 07:31:21;;;;;;;;;;;20.10;66.10;;;;;;1567354;74;734;-61
2022/12/22 07:33:23;;;;;;;;;;;20.20;65.90;;;;;;1567603;74;1943;-60
2022/12/22 07:35:25;;;;;;;;;;;20.10;65.90;;;;;;1568970;74;720;-60
2022/12/22 07:37:27;;;;;;;;;;;20.20;65.90;;;;;;1571317;74;742;-60
2022/12/22 07:39:29;;;;;;;;;;;20.10;65.80;;;;;;1589566;74;1089;-61
2022/12/22 07:43:52;;;;;;;;;;;20.10;65.90;;;;;;1567977;74;1636;-60
2022/12/22 07:45:54;;;;;;;;;;;20.10;65.90;;;;;;1567362;74;681;-59
2022/12/22 07:47:59;;;;;;;;;;;20.10;66.00;;;;;;1569488;74;702;-60
2022/12/22 07:52:21;;;;;;;;;;;20.20;66.10;;;;;;1563673;74;1918;-60
2022/12/22 07:54:22;;;;;;;;;;;20.10;66.10;;;;;;1565016;74;1560;-59
2022/12/22 07:56:24;;;;;;;;;;;20.10;66.20;;;;;;1561872;74;800;-61
2022/12/22 07:58:26;;;;;;;;;;;20.10;66.30;;;;;;1570297;74;1148;-60
2022/12/22 08:00:28;;;;;;;;;;;20.10;66.30;;;;;;1559139;74;763;-60
2022/12/22 08:02:30;;;;;;;;;;;20.10;66.30;;;;;;1576634;74;713;-60
2022/12/22 08:04:32;;;;;;;;;;;20.10;66.30;;;;;;1567146;74;738;-60
2022/12/22 08:06:34;;;;;;;;;;;20.20;66.50;;;;;;1572103;74;756;-60
2022/12/22 08:08:36;;;;;;;;;;;20.20;66.50;;;;;;1575093;74;1578;-60
2022/12/22 08:10:37;;;;;;;;;;;20.20;66.60;;;;;;1576911;74;698;-60
2022/12/22 08:12:39;;;;;;;;;;;20.20;66.80;;;;;;1567796;74;1927;-60
2022/12/22 08:14:44;;;;;;;;;;;20.30;66.80;;;;;;1561076;74;673;-60
2022/12/22 08:16:45;;;;;;;;;;;20.30;66.70;;;;;;1573156;74;1697;-61
2022/12/22 08:18:47;;;;;;;;;;;20.40;66.40;;;;;;1574548;74;1117;-60
2022/12/22 08:20:52;;;;;;;;;;;20.30;66.30;;;;;;1575266;74;694;-59
2022/12/22 08:22:53;;;;;;;;;;;20.30;66.10;;;;;;1561543;74;1624;-61
2022/12/22 08:24:55;;;;;;;;;;;20.30;66.30;;;;;;1572347;74;704;-60
2022/12/22 08:26:59;;;;;;;;;;;20.30;66.30;;;;;;1564255;74;733;-61
2022/12/22 08:29:11;;;;;;;;;;;20.30;66.40;;;;;;1574595;74;1096;-61
2022/12/22 08:31:13;;;;;;;;;;;20.30;66.20;;;;;;1567413;74;653;-60
2022/12/22 08:33:15;;;;;;;;;;;20.20;66.00;;;;;;1570643;74;1941;-61
2022/12/22 08:35:17;;;;;;;;;;;20.20;66.00;;;;;;1567234;74;735;-64
2022/12/22 08:37:20;;;;;;;;;;;20.20;66.00;;;;;;1570462;74;1576;-64
2022/12/22 08:39:22;;;;;;;;;;;20.20;65.90;;;;;;1573299;74;1139;-64
2022/12/22 08:43:44;;;;;;;;;;;20.20;65.90;;;;;;1567988;74;1898;-63
2022/12/22 08:45:46;;;;;;;;;;;20.10;65.90;;;;;;1566093;74;702;-62
2022/12/22 08:47:47;;;;;;;;;;;20.10;65.90;;;;;;1568623;74;702;-67
2022/12/22 08:49:49;;;;;;;;;;;20.10;66.00;;;;;;1563317;74;1104;-67
2022/12/22 08:51:52;;;;;;;;;;;20.10;66.00;;;;;;1570391;74;645;-68
2022/12/22 08:53:53;;;;;;;;;;;20.20;65.90;;;;;;1563970;74;1973;-63
2022/12/22 08:55:55;;;;;;;;;;;20.10;66.10;;;;;;1565133;74;682;-64
2022/12/22 08:57:57;;;;;;;;;;;20.20;66.20;;;;;;1561466;74;610;-62
2022/12/22 08:59:59;;;;;;;;;;;20.30;66.20;;;;;;1566415;74;1197;-63
2022/12/22 09:02:05;;;;;;;;;;;20.30;66.10;;;;;;1569169;74;738;-60
2022/12/22 09:04:05;;;;;;;;;;;20.30;66.00;;;;;;1557134;74;1582;-60
2022/12/22 09:06:07;;;;;;;;;;;20.20;65.80;;;;;;1560844;74;687;-60
2022/12/22 09:08:09;;;;;;;;;;;20.20;65.80;;;;;;1567806;74;1149;-60
2022/12/22 09:10:11;;;;;;;;;;;20.20;65.90;;;;;;1576903;74;772;-61
2022/12/22 09:12:13;;;;;;;;;;;20.10;65.90;;;;;;1571655;74;812;-61
2022/12/22 09:14:15;;;;;;;;;;;20.20;65.90;;;;;;1568509;74;1949;-60
2022/12/22 09:16:17;;;;;;;;;;;20.10;65.80;;;;;;1564083;74;523;-61
2022/12/22 09:18:18;;;;;;;;;;;20.20;65.80;;;;;;1560525;74;1557;-60
2022/12/22 09:20:20;;;;;;;;;;;20.20;65.80;;;;;;1568121;74;705;-60
2022/12/22 09:22:22;;;;;;;;;;;20.10;65.90;;;;;;1568818;74;641;-61
2022/12/22 09:24:24;;;;;;;;;;;20.00;65.70;;;;;;1566507;74;710;-61
2022/12/22 09:26:26;;;;;;;;;;;20.10;65.80;;;;;;1566362;74;695;-60
2022/12/22 09:28:28;;;;;;;;;;;20.10;65.80;;;;;;1571628;74;1191;-62
2022/12/22 09:30:30;;;;;;;;;;;20.20;65.80;;;;;;1562802;74;851;-60
2022/12/22 09:32:32;;;;;;;;;;;20.10;65.80;;;;;;1564505;74;1942;-61
2022/12/22 09:34:34;;;;;;;;;;;20.10;65.80;;;;;;1568344;74;680;-61
2022/12/22 09:36:36;;;;;;;;;;;20.10;65.80;;;;;;1569572;74;663;-61
2022/12/22 09:38:38;;;;;;;;;;;20.20;65.80;;;;;;1546788;75;1137;-61
2022/12/22 09:40:40;;;;;;;;;;;20.10;65.80;;;;;;1568507;74;789;-60
2022/12/22 09:42:42;;;;;;;;;;;20.20;65.80;;;;;;1567424;74;700;-61
2022/12/22 09:44:44;;;;;;;;;;;20.20;65.80;;;;;;1573050;74;644;-61
2022/12/22 09:46:46;;;;;;;;;;;20.20;65.70;;;;;;1568803;74;1519;-62
2022/12/22 09:48:48;;;;;;;;;;;20.20;65.70;;;;;;1570230;74;1128;-61
2022/12/22 09:50:50;;;;;;;;;;;20.20;65.70;;;;;;1577137;74;690;-62
2022/12/22 09:52:56;;;;;;;;;;;20.20;65.60;;;;;;1575002;74;1946;-61
2022/12/22 09:54:58;;;;;;;;;;;20.20;65.70;;;;;;1564362;74;694;-61
2022/12/22 09:57:00;;;;;;;;;;;20.20;65.60;;;;;;1568332;74;719;-61
2022/12/22 09:59:04;;;;;;;;;;;20.20;65.60;;;;;;1574137;74;1128;-61
2022/12/22 10:01:24;;;;;;;;;;;20.20;65.60;;;;;;1563583;74;1349;-61
2022/12/22 10:03:30;;;;;;;;;;;20.10;65.60;;;;;;1567098;74;768;-61
2022/12/22 10:05:43;;;;;;;;;;;20.20;65.60;;;;;;1562691;74;621;-62
2022/12/22 10:07:44;;;;;;;;;;;20.10;65.60;;;;;;1573756;74;646;-60
2022/12/22 10:09:46;;;;;;;;;;;20.20;65.50;;;;;;1574759;74;1172;-62
2022/12/22 10:11:53;;;;;;;;;;;20.10;65.50;;;;;;1568026;74;791;-60
2022/12/22 10:13:54;;;;;;;;;;;20.20;65.60;;;;;;1567008;74;1966;-60
2022/12/22 10:15:56;;;;;;;;;;;20.10;65.50;;;;;;1573204;74;1499;-62
2022/12/22 10:18:00;;;;;;;;;;;20.10;65.50;;;;;;1574763;74;675;-61
2022/12/22 10:20:03;;;;;;;;;;;20.10;65.50;;;;;;1571306;74;1946;-60
2022/12/22 10:22:23;;;;;;;;;;;20.10;65.60;;;;;;1569825;74;1610;-60
2022/12/22 10:24:26;;;;;;;;;;;20.10;65.50;;;;;;1573321;74;750;-61
2022/12/22 10:26:28;;;;;;;;;;;20.10;65.60;;;;;;1569915;74;673;-60
2022/12/22 10:28:32;;;;;;;;;;;20.10;65.60;;;;;;1574787;74;1662;-61
2022/12/22 10:30:34;;;;;;;;;;;20.10;65.60;;;;;;1568322;74;1641;-60
2022/12/22 10:32:36;;;;;;;;;;;20.10;65.60;;;;;;1576494;74;688;-60
2022/12/22 10:34:40;;;;;;;;;;;20.10;65.60;;;;;;1566203;74;1949;-61
2022/12/22 10:36:43;;;;;;;;;;;20.10;65.60;;;;;;1565323;74;1737;-61
2022/12/22 10:39:02;;;;;;;;;;;20.10;65.60;;;;;;1565886;74;1774;-60
2022/12/22 10:41:05;;;;;;;;;;;20.10;65.60;;;;;;1556238;74;760;-61
2022/12/22 10:43:07;;;;;;;;;;;20.10;65.50;;;;;;1563353;74;1715;-61
2022/12/22 10:45:11;;;;;;;;;;;20.10;65.50;;;;;;1572792;74;712;-61
2022/12/22 10:47:18;;;;;;;;;;;20.10;65.40;;;;;;1562637;74;1773;-61
2022/12/22 10:49:21;;;;;;;;;;;20.10;65.40;;;;;;1571852;74;1141;-60
2022/12/22 10:51:23;;;;;;;;;;;20.10;65.40;;;;;;1558531;74;1802;-61
2022/12/22 10:53:39;;;;;;;;;;;20.10;65.40;;;;;;1567737;74;1947;-61
2022/12/22 10:55:42;;;;;;;;;;;20.10;65.40;;;;;;1520838;75;1205;-60
2022/12/22 10:57:44;;;;;;;;;;;20.10;65.30;;;;;;1566363;74;1536;-62
2022/12/22 10:59:53;;;;;;;;;;;20.10;65.40;;;;;;1568595;74;1087;-63
2022/12/22 11:01:55;;;;;;;;;;;20.10;65.40;;;;;;1580102;73;809;-61
2022/12/22 11:03:57;;;;;;;;;;;20.10;65.30;;;;;;1580639;73;726;-61
2022/12/22 11:06:00;;;;;;;;;;;20.10;65.20;;;;;;1577521;73;734;-62
2022/12/22 11:08:04;;;;;;;;;;;20.10;65.30;;;;;;1583721;73;772;-62
2022/12/22 11:10:19;;;;;;;;;;;20.10;65.40;;;;;;1577667;73;1567;-62
2022/12/22 11:12:37;;;;;;;;;;;20.10;65.40;;;;;;1545023;74;1767;-62
2022/12/22 11:14:43;;;;;;;;;;;20.00;65.30;;;;;;1580459;73;1941;-61
2022/12/22 11:16:56;;;;;;;;;;;20.10;65.30;;;;;;1578429;73;2120;-61
2022/12/22 11:19:02;;;;;;;;;;;20.00;65.20;;;;;;1577481;73;1565;-61
2022/12/22 11:21:09;;;;;;;;;;;20.00;64.90;;;;;;1574126;73;668;-61
2022/12/22 11:23:21;;;;;;;;;;;20.10;65.10;;;;;;1582104;73;715;-61
2022/12/22 11:25:25;;;;;;;;;;;20.10;65.10;;;;;;1579277;73;1245;-61
2022/12/22 11:27:31;;;;;;;;;;;20.10;65.10;;;;;;1582682;73;1844;-60
2022/12/22 11:29:38;;;;;;;;;;;20.10;65.00;;;;;;1576126;73;1819;-60
2022/12/22 11:31:58;;;;;;;;;;;20.10;64.30;;;;;;1580342;73;715;-60
2022/12/22 11:34:01;;;;;;;;;;;20.10;64.30;;;;;;1580757;73;1942;-60
2022/12/22 11:36:05;;;;;;;;;;;20.10;64.20;;;;;;1573071;73;1814;-60
2022/12/22 11:38:08;;;;;;;;;;;20.00;64.10;;;;;;1575160;73;1885;-60
2022/12/22 11:40:30;;;;;;;;;;;20.10;64.10;;;;;;1576885;73;1587;-60
2022/12/22 11:42:34;;;;;;;;;;;20.10;64.20;;;;;;1582979;73;718;-60
2022/12/22 11:44:37;;;;;;;;;;;20.00;64.10;;;;;;1575332;73;1496;-61
2022/12/22 11:46:47;;;;;;;;;;;20.10;64.20;;;;;;1582108;73;841;-60
2022/12/22 11:48:50;;;;;;;;;;;20.10;64.30;;;;;;1580705;73;1128;-60
2022/12/22 11:50:56;;;;;;;;;;;20.10;64.30;;;;;;1574859;73;682;-60
2022/12/22 11:53:02;;;;;;;;;;;20.10;64.30;;;;;;1577744;73;1526;-59
2022/12/22 11:55:05;;;;;;;;;;;20.10;64.30;;;;;;1582608;73;1953;-60
2022/12/22 11:57:15;;;;;;;;;;;20.10;64.30;;;;;;1584216;73;1833;-60
2022/12/22 11:59:27;;;;;;;;;;;20.00;64.20;;;;;;1583639;73;2031;-60
2022/12/22 12:01:31;;;;;;;;;;;20.00;64.20;;;;;;1573555;73;949;-60
2022/12/22 12:03:47;;;;;;;;;;;20.00;64.30;;;;;;1575104;73;1077;-61
2022/12/22 12:06:06;;;;;;;;;;;20.10;64.30;;;;;;1574020;73;702;-62
2022/12/22 12:08:24;;;;;;;;;;;20.00;64.30;;;;;;1576538;73;1814;-60
2022/12/22 12:10:27;;;;;;;;;;;20.10;64.50;;;;;;1511649;77;1084;-60
2022/12/22 12:12:40;;;;;;;;;;;20.00;64.30;;;;;;1538140;73;882;-61
2022/12/22 12:14:43;;;;;;;;;;;20.10;64.50;;;;;;1581805;73;1948;-61
2022/12/22 12:16:52;;;;;;;;;;;20.10;64.50;;;;;;1578061;73;1549;-61
2022/12/22 12:18:56;;;;;;;;;;;20.00;64.40;;;;;;1573020;73;1124;-61
2022/12/22 12:20:59;;;;;;;;;;;20.00;64.40;;;;;;1580963;73;1784;-60
2022/12/22 12:23:20;;;;;;;;;;;20.10;64.50;;;;;;1582548;73;1521;-60
2022/12/22 12:25:23;;;;;;;;;;;20.00;64.40;;;;;;1586029;73;844;-61
2022/12/22 12:27:36;;;;;;;;;;;20.00;64.40;;;;;;1582508;73;720;-61
2022/12/22 12:29:42;;;;;;;;;;;20.00;64.50;;;;;;1584728;73;1134;-60
2022/12/22 12:31:46;;;;;;;;;;;20.00;64.50;;;;;;1584055;73;1937;-62
2022/12/22 12:33:49;;;;;;;;;;;20.10;64.60;;;;;;1582100;75;1949;-61
2022/12/22 12:35:53;;;;;;;;;;;20.00;64.60;;;;;;1564950;73;1863;-61
2022/12/22 12:37:56;;;;;;;;;;;20.00;64.60;;;;;;1548245;75;1094;-60
2022/12/22 12:40:00;;;;;;;;;;;20.00;64.60;;;;;;1577825;73;1153;-61
2022/12/22 12:42:12;;;;;;;;;;;20.10;64.70;;;;;;1575363;75;1960;-61
2022/12/22 12:44:15;;;;;;;;;;;20.10;64.70;;;;;;1579005;73;654;-60
2022/12/22 12:46:35;;;;;;;;;;;20.00;64.70;;;;;;1568355;73;743;-59
2022/12/22 12:48:37;;;;;;;;;;;20.00;64.70;;;;;;1581162;73;1113;-60
2022/12/22 12:50:39;;;;;;;;;;;20.00;64.70;;;;;;1579908;73;1584;-59
2022/12/22 12:52:47;;;;;;;;;;;20.10;64.80;;;;;;1569542;73;653;-61
2022/12/22 12:54:47;;;;;;;;;;;20.00;64.80;;;;;;1582507;73;1929;-61
2022/12/22 12:57:08;;;;;;;;;;;20.00;64.80;;;;;;1579582;73;706;-60
2022/12/22 12:59:10;;;;;;;;;;;20.00;64.80;;;;;;1580143;73;1127;-59
2022/12/22 13:01:14;;;;;;;;;;;20.10;64.90;;;;;;1544356;75;808;-59
2022/12/22 13:03:26;;;;;;;;;;;20.10;64.90;;;;;;1553802;73;1565;-61
2022/12/22 13:05:46;;;;;;;;;;;20.10;64.90;;;;;;1574796;73;747;-60
2022/12/22 13:08:06;;;;;;;;;;;20.00;64.80;;;;;;1573523;73;641;-60
2022/12/22 13:10:10;;;;;;;;;;;20.00;64.80;;;;;;1572282;75;740;-60
2022/12/22 13:12:30;;;;;;;;;;;20.10;64.90;;;;;;1574748;75;1959;-59
2022/12/22 13:14:50;;;;;;;;;;;20.00;64.80;;;;;;1577241;73;1930;-59
2022/12/22 13:16:52;;;;;;;;;;;20.10;64.90;;;;;;1578826;73;668;-60
2022/12/22 13:18:57;;;;;;;;;;;20.10;65.00;;;;;;1572977;73;1421;-60
2022/12/22 13:21:01;;;;;;;;;;;20.00;64.80;;;;;;1564930;74;1649;-58
2022/12/22 13:23:04;;;;;;;;;;;20.00;64.80;;;;;;1562503;74;727;-59
2022/12/22 13:25:06;;;;;;;;;;;20.00;64.80;;;;;;1559389;74;725;-60
2022/12/22 13:27:09;;;;;;;;;;;20.00;64.90;;;;;;1556556;74;843;-61
2022/12/22 13:29:12;;;;;;;;;;;20.00;64.90;;;;;;1567885;74;1145;-60
2022/12/22 13:31:21;;;;;;;;;;;20.00;64.80;;;;;;1570513;74;1590;-59
2022/12/22 13:33:24;;;;;;;;;;;20.00;64.80;;;;;;1562970;74;797;-59
2022/12/22 13:35:36;;;;;;;;;;;20.00;64.80;;;;;;1569393;74;1927;-59
2022/12/22 13:37:39;;;;;;;;;;;20.10;64.00;;;;;;1563535;74;692;-60
2022/12/22 13:39:41;;;;;;;;;;;20.10;63.50;;;;;;1550513;75;1163;-59
2022/12/22 13:41:44;;;;;;;;;;;20.00;63.50;;;;;;1565598;74;683;-60
2022/12/22 13:43:47;;;;;;;;;;;20.00;63.70;;;;;;1570174;74;691;-60
2022/12/22 13:45:49;;;;;;;;;;;20.00;63.60;;;;;;1568346;75;1557;-60
2022/12/22 13:47:51;;;;;;;;;;;20.00;63.70;;;;;;1574698;74;727;-59
2022/12/22 13:49:53;;;;;;;;;;;20.00;63.70;;;;;;1564486;74;1129;-60
2022/12/22 13:51:55;;;;;;;;;;;20.00;63.60;;;;;;1557090;75;724;-60
2022/12/22 13:53:58;;;;;;;;;;;20.10;63.70;;;;;;1554314;74;1950;-60
2022/12/22 13:56:00;;;;;;;;;;;20.00;63.70;;;;;;1574912;74;692;-60
2022/12/22 13:58:03;;;;;;;;;;;20.10;63.80;;;;;;1559994;74;781;-61
2022/12/22 14:00:06;;;;;;;;;;;20.10;63.80;;;;;;1567498;74;1622;-60
2022/12/22 14:02:10;;;;;;;;;;;20.10;63.90;;;;;;1564089;74;808;-60
2022/12/22 14:04:12;;;;;;;;;;;20.00;63.90;;;;;;1561275;74;707;-60
2022/12/22 14:06:22;;;;;;;;;;;20.00;64.10;;;;;;1567931;74;681;-60
2022/12/22 14:08:24;;;;;;;;;;;20.10;64.50;;;;;;1565271;74;1232;-59
2022/12/22 14:10:27;;;;;;;;;;;20.00;64.40;;;;;;1566159;74;674;-61
2022/12/22 14:12:32;;;;;;;;;;;20.00;64.50;;;;;;1564641;74;706;-61
2022/12/22 14:14:38;;;;;;;;;;;20.00;64.70;;;;;;1561565;74;1920;-59
2022/12/22 14:16:46;;;;;;;;;;;20.00;64.90;;;;;;1561269;74;745;-59
2022/12/22 14:18:49;;;;;;;;;;;20.00;64.90;;;;;;1567683;74;1151;-58
2022/12/22 14:20:50;;;;;;;;;;;20.10;65.00;;;;;;1569746;75;679;-60
2022/12/22 14:22:54;;;;;;;;;;;20.10;65.00;;;;;;1568015;74;697;-58
2022/12/22 14:25:00;;;;;;;;;;;20.10;64.90;;;;;;1568322;74;644;-58
2022/12/22 14:27:02;;;;;;;;;;;20.00;64.90;;;;;;1568753;74;1460;-60
2022/12/22 14:29:04;;;;;;;;;;;20.00;65.00;;;;;;1572457;74;1669;-60
2022/12/22 14:31:06;;;;;;;;;;;20.10;65.00;;;;;;1546357;75;1579;-60
2022/12/22 14:33:28;;;;;;;;;;;20.00;64.90;;;;;;1567194;74;718;-60
2022/12/22 14:35:30;;;;;;;;;;;20.00;64.70;;;;;;1561612;74;1911;-60
2022/12/22 14:37:32;;;;;;;;;;;20.00;64.70;;;;;;1571154;74;683;-60
2022/12/22 14:39:34;;;;;;;;;;;20.00;64.70;;;;;;1568630;74;1129;-60
2022/12/22 14:41:53;;;;;;;;;;;20.00;64.70;;;;;;1561470;74;1551;-60
2022/12/22 14:43:52;;;;;;;;;;;20.10;64.80;;;;;;1572835;74;1498;-60
2022/12/22 14:45:56;;;;;;;;;;;20.00;64.60;;;;;;1562315;75;697;-59
2022/12/22 14:47:58;;;;;;;;;;;20.00;64.60;;;;;;1561019;74;1865;-60
2022/12/22 14:50:01;;;;;;;;;;;20.00;64.50;;;;;;1563135;74;1129;-60
2022/12/22 14:52:04;;;;;;;;;;;20.00;64.10;;;;;;1566448;74;744;-61
2022/12/22 14:54:07;;;;;;;;;;;20.00;64.20;;;;;;1565258;74;1137;-60
2022/12/22 14:56:10;;;;;;;;;;;20.00;64.20;;;;;;1563815;74;1550;-60
2022/12/22 14:58:12;;;;;;;;;;;20.00;64.40;;;;;;1562757;74;1836;-60
2022/12/22 15:00:25;;;;;;;;;;;20.00;64.40;;;;;;1564296;74;804;-60
2022/12/22 15:02:28;;;;;;;;;;;20.00;64.30;;;;;;1571820;74;850;-60
2022/12/22 15:04:30;;;;;;;;;;;20.00;64.40;;;;;;1575722;74;1975;-60
2022/12/22 15:06:34;;;;;;;;;;;20.10;64.60;;;;;;1576342;74;691;-60
2022/12/22 15:08:37;;;;;;;;;;;20.10;64.60;;;;;;1574825;74;1120;-60
2022/12/22 15:10:42;;;;;;;;;;;20.00;64.50;;;;;;1556686;74;1771;-61
2022/12/22 15:12:45;;;;;;;;;;;20.00;64.40;;;;;;1566441;74;766;-65
2022/12/22 15:14:47;;;;;;;;;;;20.00;64.40;;;;;;1562151;74;1934;-61
2022/12/22 15:16:49;;;;;;;;;;;20.00;64.40;;;;;;1571552;75;811;-61
2022/12/22 15:18:51;;;;;;;;;;;20.10;64.50;;;;;;1564306;74;1170;-61
2022/12/22 15:20:54;;;;;;;;;;;20.00;64.40;;;;;;1553276;74;703;-61
2022/12/22 15:22:56;;;;;;;;;;;20.00;64.30;;;;;;1564646;74;691;-61
2022/12/22 15:24:57;;;;;;;;;;;20.00;64.30;;;;;;1561329;74;1615;-60
2022/12/22 15:26:59;;;;;;;;;;;20.00;64.30;;;;;;1570803;74;694;-65
2022/12/22 15:29:01;;;;;;;;;;;19.90;64.30;;;;;;1563621;74;1139;-61
2022/12/22 15:31:03;;;;;;;;;;;20.00;64.40;;;;;;1564301;74;712;-61
2022/12/22 15:33:07;;;;;;;;;;;20.00;64.40;;;;;;1566461;74;763;-61
2022/12/22 15:35:16;;;;;;;;;;;20.00;66.10;;;;;;1563913;74;1932;-61
2022/12/22 15:37:18;;;;;;;;;;;20.00;65.80;;;;;;1572930;74;1854;-60
2022/12/22 15:39:20;;;;;;;;;;;20.00;66.20;;;;;;1565721;74;1590;-60
2022/12/22 15:41:22;;;;;;;;;;;20.00;66.10;;;;;;1564075;74;879;-62
2022/12/22 15:43:24;;;;;;;;;;;20.00;66.00;;;;;;1572615;74;721;-61
2022/12/22 15:45:25;;;;;;;;;;;20.10;66.10;;;;;;1568368;75;724;-60
2022/12/22 15:47:27;;;;;;;;;;;20.10;66.50;;;;;;1572716;74;761;-60
2022/12/22 15:49:29;;;;;;;;;;;20.00;65.90;;;;;;1571741;74;1113;-60
2022/12/22 15:51:32;;;;;;;;;;;20.10;66.10;;;;;;1561322;74;712;-60
2022/12/22 15:53:34;;;;;;;;;;;20.10;66.30;;;;;;1569304;74;1538;-60
2022/12/22 15:55:37;;;;;;;;;;;20.10;65.70;;;;;;1567102;74;1951;-64
2022/12/22 15:57:39;;;;;;;;;;;20.10;64.30;;;;;;1609710;70;226370;-70
2022/12/22 15:59:41;;;;;;;;;;;20.10;64.80;;;;;;1611917;72;791;-71